Time;durP1;ratioP1;P1;durP2;ratioP2;P2;SDS_P1;SDS_P2;PMS_P1;PMS_P2;Temp;Humidity;BMP_temperature;BMP_pressure;BME280_temperature;BME280_humidity;BME280_pressure;Samples;Min_cycle;Max_cycle;Signal;HPM_P1;HPM_P2
2022/04/01 00:02:23;;;;;;;4.63;2.20;;;;;;;;;;5174767;27;20050;-74
2022/04/01 00:04:50;;;;;;;4.68;2.40;;;;;;;;;;5174961;27;20038;-72
2022/04/01 00:07:16;;;;;;;7.60;2.22;;;;;;;;;;5174881;27;20553;-72
2022/04/01 00:09:42;;;;;;;7.85;2.05;;;;;;;;;;5174547;27;20042;-73
2022/04/01 00:12:09;;;;;;;5.85;1.83;;;;;;;;;;5174928;27;20125;-72
2022/04/01 00:14:35;;;;;;;5.13;2.03;;;;;;;;;;5174613;27;20046;-72
2022/04/01 00:17:02;;;;;;;4.10;1.60;;;;;;;;;;5174168;27;20058;-72
2022/04/01 00:19:28;;;;;;;5.82;2.50;;;;;;;;;;5174610;27;20460;-72
2022/04/01 00:21:54;;;;;;;4.97;2.05;;;;;;;;;;5174588;27;20042;-72
2022/04/01 00:24:21;;;;;;;5.55;2.28;;;;;;;;;;5177770;27;20116;-72
2022/04/01 00:26:47;;;;;;;6.20;1.67;;;1.40;99.90;;;;;;5177944;27;20576;-72
2022/04/01 00:29:17;;;;;;;5.72;2.20;;;1.30;99.90;;;;;;5178468;27;20125;-72
2022/04/01 00:31:42;;;;;;;5.10;2.25;;;1.20;99.90;;;;;;5178118;27;20034;-72
2022/04/01 00:34:17;;;;;;;4.83;2.13;;;1.20;99.90;;;;;;5178470;27;20433;-72
2022/04/01 00:36:50;;;;;;;6.35;2.22;;;1.30;99.90;;;;;;5178070;27;20081;-72
2022/04/01 00:39:18;;;;;;;7.15;2.92;;;1.20;99.90;;;;;;5178299;27;20129;-72
2022/04/01 00:41:45;;;;;;;5.07;2.10;;;1.20;99.90;;;;;;5177872;27;20038;-72
2022/04/01 00:44:14;;;;;;;6.93;2.42;;;1.20;99.90;;;;;;5178220;27;20042;-72
2022/04/01 00:46:42;;;;;;;7.22;2.03;;;1.20;99.90;;;;;;5177843;27;20450;-72
2022/04/01 00:49:08;;;;;;;4.65;2.03;;;1.20;99.90;;;;;;5178049;27;20046;-72
2022/04/01 00:51:34;;;;;;;5.88;2.15;;;1.20;99.90;;;;;;5159182;27;20041;-72
2022/04/01 00:54:01;;;;;;;5.75;2.22;;;1.20;99.90;;;;;;5178004;27;20046;-71
2022/04/01 00:56:31;;;;;;;5.60;2.17;;;1.30;99.90;;;;;;5177760;27;20478;-79
2022/04/01 00:58:57;;;;;;;5.43;2.00;;;1.20;99.90;;;;;;5178199;27;20451;-72
2022/04/01 01:01:24;;;;;;;7.10;2.10;;;1.20;99.90;;;;;;5177842;27;20110;-71
2022/04/01 01:03:50;;;;;;;7.53;2.58;;;1.20;99.90;;;;;;5177632;27;20054;-72
2022/04/01 01:06:20;;;;;;;4.85;2.03;;;1.20;99.90;;;;;;5177778;27;20549;-72
2022/04/01 01:08:47;;;;;;;8.45;2.20;;;1.10;99.90;;;;;;5177374;27;20405;-72
2022/04/01 01:11:12;;;;;;;6.78;1.85;;;1.20;99.90;;;;;;5177611;27;20047;-71
2022/04/01 01:13:39;;;;;;;4.27;1.87;;;1.20;99.90;;;;;;5177344;27;20601;-71
2022/04/01 01:16:07;;;;;;;6.80;2.20;;;1.20;99.90;;;;;;5177320;27;20097;-71
2022/04/01 01:18:34;;;;;;;6.50;1.73;;;1.00;99.90;;;;;;5155036;27;20058;-72
2022/04/01 01:20:59;;;;;;;5.47;1.77;;;1.10;99.90;;;;;;5156988;27;20117;-71
2022/04/01 01:23:31;;;;;;;6.10;1.83;;;1.10;99.90;;;;;;5156662;27;20103;-71
2022/04/01 01:25:57;;;;;;;8.15;2.10;;;1.10;99.90;;;;;;5155311;27;20363;-71
2022/04/01 01:28:24;;;;;;;8.27;1.98;;;1.10;99.90;;;;;;5156503;27;20046;-71
2022/04/01 01:30:50;;;;;;;6.05;2.28;;;1.00;99.90;;;;;;5156141;27;20047;-71
2022/04/01 01:33:20;;;;;;;5.60;1.90;;;1.00;99.90;;;;;;5156344;27;20130;-71
2022/04/01 01:35:46;;;;;;;6.72;2.20;;;1.10;99.90;;;;;;5156257;27;20038;-71
2022/04/01 01:38:15;;;;;;;6.65;2.30;;;1.00;99.90;;;;;;5155341;27;20482;-71
2022/04/01 01:40:41;;;;;;;4.50;1.88;;;1.10;99.90;;;;;;5155868;27;20051;-71
2022/04/01 01:43:06;;;;;;;5.03;1.83;;;1.00;99.90;;;;;;5154988;27;20047;-71
2022/04/01 01:45:32;;;;;;;6.47;2.77;;;1.10;99.90;;;;;;5154760;27;20049;-76
2022/04/01 01:47:58;;;;;;;4.90;1.80;;;1.10;99.90;;;;;;5155303;27;20086;-71
2022/04/01 01:55:52;;;;;;;4.93;1.92;;;1.10;99.90;;;;;;5155650;27;20042;-71
2022/04/01 01:58:18;;;;;;;6.10;2.03;;;1.10;99.90;;;;;;5155869;27;20439;-71
2022/04/01 02:00:45;;;;;;;5.43;2.07;;;1.20;99.90;;;;;;5155568;27;20045;-71
2022/04/01 02:03:12;;;;;;;7.05;2.17;;;1.20;99.90;;;;;;5155853;27;20050;-71
2022/04/01 02:05:38;;;;;;;3.67;1.60;;;1.30;99.90;;;;;;5155501;27;20043;-71
2022/04/01 02:08:05;;;;;;;6.25;1.85;;;1.20;99.90;;;;;;5154699;27;20043;-71
2022/04/01 02:10:32;;;;;;;5.22;2.28;;;1.30;99.90;;;;;;5120350;27;20042;-71
2022/04/01 02:12:58;;;;;;;6.78;2.75;;;1.20;99.90;;;;;;5155268;27;20046;-71
2022/04/01 02:15:25;;;;;;;5.60;2.17;;;1.20;99.90;;;;;;5155299;27;20035;-71
2022/04/01 02:17:51;;;;;;;6.90;2.10;;;1.30;99.90;;;;;;5168686;27;20061;-71
2022/04/01 02:20:17;;;;;;;6.00;2.08;;;1.20;99.90;;;;;;5176317;27;20125;-71
2022/04/01 02:22:44;;;;;;;5.55;1.80;;;1.30;99.90;;;;;;5157644;27;20046;-71
2022/04/01 02:25:13;;;;;;;5.57;1.88;;;1.30;99.90;;;;;;5176105;27;20478;-71
2022/04/01 02:27:39;;;;;;;10.43;2.28;;;1.40;99.90;;;;;;5175859;27;20090;-71
2022/04/01 02:30:12;;;;;;;6.77;2.60;;;1.30;99.90;;;;;;5176077;27;20043;-71
2022/04/01 02:32:42;;;;;;;7.40;2.08;;;1.40;99.90;;;;;;5157544;27;20050;-71
2022/04/01 02:35:09;;;;;;;7.60;2.25;;;1.50;99.90;;;;;;5175939;27;20157;-71
2022/04/01 02:37:36;;;;;;;8.93;2.58;;;1.40;99.90;;;;;;5176057;27;20046;-71
2022/04/01 02:40:04;;;;;;;8.27;2.45;;;1.40;99.90;;;;;;5175852;27;20042;-71
2022/04/01 02:42:30;;;;;;;6.18;1.90;;;1.40;99.90;;;;;;5175593;27;20038;-71
2022/04/01 02:44:56;;;;;;;8.83;2.50;;;1.50;99.90;;;;;;5157103;27;20049;-71
2022/04/01 02:47:22;;;;;;;8.35;1.98;;;1.50;99.90;;;;;;5157034;27;20557;-71
2022/04/01 02:49:48;;;;;;;6.47;2.40;;;1.50;99.90;;;;;;5175479;27;20081;-71
2022/04/01 02:52:13;;;;;;;5.87;2.27;;;1.50;99.90;;;;;;5175463;27;20069;-71
2022/04/01 02:54:39;;;;;;;4.83;2.27;;;1.50;99.90;;;;;;5175352;27;20267;-73
2022/04/01 02:57:05;;;;;;;4.63;1.87;;;1.50;99.90;;;;;;5175606;27;20114;-71
2022/04/01 02:59:31;;;;;;;7.20;2.20;;;1.60;99.90;;;;;;5157032;27;20042;-71
2022/04/01 03:01:57;;;;;;;6.17;2.07;;;1.70;99.90;;;;;;5175265;27;20042;-71
2022/04/01 03:04:22;;;;;;;9.37;2.13;;;1.50;99.90;;;;;;5175651;27;20069;-71
2022/04/01 03:06:48;;;;;;;5.67;1.60;;;1.60;99.90;;;;;;5175311;27;20055;-71
2022/04/01 03:09:15;;;;;;;6.90;1.80;;;;;;;;;;5139891;27;20542;-71
2022/04/01 03:11:41;;;;;;;7.25;2.00;;;;;;;;;;5175274;27;20042;-75
2022/04/01 03:14:08;;;;;;;7.95;2.10;;;;;;;;;;5175528;27;20054;-71
2022/04/01 03:16:35;;;;;;;5.78;1.77;;;;;;;;;;5156559;27;20045;-72
2022/04/01 03:19:01;;;;;;;4.97;1.85;;;;;;;;;;5156853;27;20070;-71
2022/04/01 03:21:29;;;;;;;6.90;1.70;;;;;;;;;;5175356;27;20042;-71
2022/04/01 03:23:55;;;;;;;6.97;2.08;;;;;;;;;;5156701;27;20050;-72
2022/04/01 03:26:22;;;;;;;7.38;2.92;;;;;;;;;;5157023;27;20050;-71
2022/04/01 03:28:48;;;;;;;12.57;1.95;;;;;;;;;;5156718;27;20050;-72
2022/04/01 03:31:15;;;;;;;8.18;1.90;;;;;;;;;;5156678;27;20046;-71
2022/04/01 03:33:41;;;;;;;7.65;1.98;;;;;;;;;;5139699;27;20042;-71
2022/04/01 03:36:08;;;;;;;5.20;1.95;;;;;;;;;;5174961;27;20083;-70
2022/04/01 03:38:35;;;;;;;7.80;1.90;;;;;;;;;;5156706;27;20042;-70
2022/04/01 03:41:01;;;;;;;6.80;1.80;;;;;;;;;;5174850;27;20102;-71
2022/04/01 03:43:28;;;;;;;7.13;1.70;;;;;;;;;;5175152;27;20514;-70
2022/04/01 03:45:54;;;;;;;6.35;1.85;;;;;;;;;;5156261;27;20078;-70
2022/04/01 03:48:31;;;;;;;7.65;2.03;;;;;;;;;;5175286;27;20038;-70
2022/04/01 03:50:58;;;;;;;7.50;2.00;;;;;;;;;;5174866;27;20046;-70
2022/04/01 03:53:31;;;;;;;6.35;1.33;;;;;;;;;;5175090;27;20094;-70
2022/04/01 03:55:58;;;;;;;7.78;1.70;;;;;;;;;;5156120;27;20168;-70
2022/04/01 03:58:31;;;;;;;8.63;1.90;;;;;;;;;;5176753;27;20125;-70
2022/04/01 04:00:58;;;;;;;5.40;1.50;;;;;;;;;;5160324;27;20085;-70
2022/04/01 04:03:24;;;;;;;8.65;1.80;;;;;;;;;;5178814;27;20478;-70
2022/04/01 04:05:51;;;;;;;3.10;1.30;;;;;;;;;;5178659;27;20084;-70
2022/04/01 04:08:19;;;;;;;8.57;1.50;;;2.00;99.90;;;;;;5179065;27;20371;-70
2022/04/01 04:10:47;;;;;;;7.85;2.00;;;1.90;99.90;;;;;;5160481;27;20054;-70
2022/04/01 04:13:15;;;;;;;8.25;2.30;;;1.90;99.90;;;;;;5178911;27;20474;-70
2022/04/01 04:15:49;;;;;;;6.07;1.73;;;1.90;99.90;;;;;;5178681;27;20046;-70
2022/04/01 04:18:17;;;;;;;6.55;1.67;;;1.80;99.90;;;;;;5178297;27;20069;-70
2022/04/01 04:20:55;;;;;;;5.57;1.48;;;1.90;99.90;;;;;;5178909;27;20257;-70
2022/04/01 04:23:25;;;;;;;8.90;1.90;;;2.00;99.90;;;;;;5160602;27;20056;-70
2022/04/01 04:26:01;;;;;;;4.72;1.60;;;2.00;99.90;;;;;;5159904;27;20049;-71
2022/04/01 04:28:30;;;;;;;5.30;1.70;;;2.00;99.90;;;;;;5178712;27;20175;-70
2022/04/01 04:31:02;;;;;;;10.77;1.85;;;2.00;99.90;;;;;;5178171;27;20050;-70
2022/04/01 04:33:33;;;;;;;5.82;1.50;;;1.90;99.90;;;;;;5160010;27;20042;-70
2022/04/01 04:36:04;;;;;;;8.50;1.70;;;2.00;99.90;;;;;;5178109;27;20078;-70
2022/04/01 04:38:38;;;;;;;9.18;1.98;;;2.00;99.90;;;;;;5178398;27;20125;-70
2022/04/01 04:41:08;;;;;;;6.90;2.03;;;2.00;99.90;;;;;;5159474;27;20050;-70
2022/04/01 04:43:40;;;;;;;5.47;1.75;;;2.00;99.90;;;;;;5159873;27;20386;-70
2022/04/01 04:46:07;;;;;;;5.70;1.95;;;2.00;99.90;;;;;;5177907;27;20152;-70
2022/04/01 04:48:35;;;;;;;6.43;1.77;;;2.10;99.90;;;;;;5178146;27;20042;-70
2022/04/01 04:51:05;;;;;;;8.90;2.45;;;2.10;99.90;;;;;;5177561;27;20485;-70
2022/04/01 04:53:34;;;;;;;7.00;2.15;;;2.00;99.90;;;;;;5177586;27;20489;-70
2022/04/01 04:56:04;;;;;;;8.07;2.17;;;2.10;99.90;;;;;;5159217;27;20042;-70
2022/04/01 04:58:43;;;;;;;7.38;1.95;;;2.00;99.90;;;;;;5178331;27;20094;-70
2022/04/01 05:01:29;;;;;;;5.85;1.40;;;2.00;99.90;;;;;;5143089;27;20098;-70
2022/04/01 05:04:19;;;;;;;4.72;1.75;;;2.00;99.90;;;;;;5159161;27;20102;-71
2022/04/01 05:07:09;;;;;;;6.10;1.95;;;2.10;99.90;;;;;;5177885;27;20042;-70
2022/04/01 05:09:41;;;;;;;7.25;2.20;;;2.00;99.90;;;;;;5159039;27;20138;-70
2022/04/01 05:12:23;;;;;;;6.90;1.75;;;2.00;99.90;;;;;;5177455;27;20179;-71
2022/04/01 05:15:08;;;;;;;7.32;1.83;;;2.10;99.90;;;;;;5177695;27;20073;-72
2022/04/01 05:17:37;;;;;;;5.85;1.63;;;2.10;99.90;;;;;;5177576;27;20062;-71
2022/04/01 05:20:15;;;;;;;7.28;1.80;;;2.20;99.90;;;;;;5158640;27;20137;-70
2022/04/01 05:23:01;;;;;;;8.23;1.50;;;2.20;99.90;;;;;;5177746;27;20157;-71
2022/04/01 05:25:32;;;;;;;9.75;2.20;;;2.20;99.90;;;;;;5177775;27;20053;-71
2022/04/01 05:28:01;;;;;;;5.80;1.80;;;2.20;99.90;;;;;;5158589;27;20508;-71
2022/04/01 05:30:32;;;;;;;8.15;1.70;;;2.20;99.90;;;;;;5177328;27;20052;-71
2022/04/01 05:33:08;;;;;;;5.70;2.03;;;2.20;99.90;;;;;;5177062;27;20046;-71
2022/04/01 05:35:37;;;;;;;8.07;2.15;;;2.20;99.90;;;;;;5141835;27;20060;-71
2022/04/01 05:38:04;;;;;;;7.38;1.98;;;2.30;99.90;;;;;;5158640;27;20079;-71
2022/04/01 05:40:31;;;;;;;9.05;1.98;;;2.20;99.90;;;;;;5141657;27;20054;-71
2022/04/01 05:42:59;;;;;;;11.93;2.38;;;2.30;99.90;;;;;;5158322;27;20057;-72
2022/04/01 05:45:27;;;;;;;6.75;3.05;;;2.30;99.90;;;;;;5177401;27;20405;-71
2022/04/01 05:47:54;;;;;;;8.63;2.10;;;2.40;99.90;;;;;;5177006;27;20046;-71
2022/04/01 05:50:23;;;;;;;8.32;2.10;;;2.40;99.90;;;;;;5158482;27;20042;-71
2022/04/01 05:52:50;;;;;;;7.07;1.92;;;2.30;99.90;;;;;;5158142;27;20390;-71
2022/04/01 05:55:20;;;;;;;5.18;1.77;;;2.30;99.90;;;;;;5176453;27;20042;-71
2022/04/01 05:57:46;;;;;;;7.45;1.85;;;2.40;99.90;;;;;;5176929;27;20042;-71
2022/04/01 06:00:13;;;;;;;5.00;1.97;;;2.40;99.90;;;;;;5158123;27;20389;-71
2022/04/01 06:03:26;;;;;;;12.45;2.45;;;2.40;99.90;;;;;;5158481;27;20050;-71
2022/04/01 06:06:02;;;;;;;7.63;2.22;;;2.40;99.90;;;;;;5130197;27;20042;-71
2022/04/01 06:09:04;;;;;;;9.70;2.17;;;2.40;99.90;;;;;;5176990;27;20038;-72
2022/04/01 06:12:02;;;;;;;7.90;2.10;;;2.50;99.90;;;;;;5176631;27;20046;-72
2022/04/01 06:14:59;;;;;;;10.18;2.15;;;2.50;99.90;;;;;;5176659;27;20050;-72
2022/04/01 06:17:53;;;;;;;6.72;1.77;;;2.50;99.90;;;;;;5176476;27;20410;-71
2022/04/01 06:20:24;;;;;;;5.55;1.65;;;2.50;99.90;;;;;;5175373;27;20416;-72
2022/04/01 06:23:07;;;;;;;8.00;1.95;;;2.50;99.90;;;;;;5176403;27;20091;-72
2022/04/01 06:25:40;;;;;;;8.60;2.00;;;2.50;99.90;;;;;;5176381;27;20086;-72
2022/04/01 06:28:24;;;;;;;5.70;1.95;;;2.50;99.90;;;;;;5176124;27;20116;-72
2022/04/01 06:30:50;;;;;;;6.93;1.83;;;2.50;99.90;;;;;;5176324;27;20042;-71
2022/04/01 06:33:40;;;;;;;5.60;1.67;;;2.50;99.90;;;;;;5140315;27;20049;-72
2022/04/01 06:36:10;;;;;;;4.82;2.05;;;2.50;99.90;;;;;;5175882;27;20078;-72
2022/04/01 06:38:40;;;;;;;5.63;2.03;;;2.50;99.90;;;;;;5176409;27;20050;-72
2022/04/01 06:41:17;;;;;;;5.15;1.77;;;2.60;99.90;;;;;;5157414;27;20050;-69
2022/04/01 06:43:43;;;;;;;6.72;2.53;;;2.60;99.90;;;;;;5176049;27;20046;-71
2022/04/01 06:46:10;;;;;;;7.60;1.73;;;2.60;99.90;;;;;;5175760;27;20061;-71
2022/04/01 06:48:36;;;;;;;9.93;2.22;;;2.60;99.90;;;;;;5175997;27;20552;-71
2022/04/01 06:51:02;;;;;;;5.95;1.95;;;2.70;99.90;;;;;;5157067;27;20038;-72
2022/04/01 06:53:28;;;;;;;10.73;2.50;;;2.70;99.90;;;;;;5176149;27;20511;-68
2022/04/01 06:55:53;;;;;;;5.27;2.57;;;2.60;99.90;;;;;;5157175;27;20042;-71
2022/04/01 06:58:20;;;;;;;7.43;2.37;;;2.60;99.90;;;;;;5175480;27;20044;-72
2022/04/01 07:00:46;;;;;;;5.57;1.80;;;2.70;99.90;;;;;;5175784;27;20538;-72
2022/04/01 07:03:11;;;;;;;6.10;2.20;;;2.70;99.90;;;;;;5175503;27;20050;-73
2022/04/01 07:05:38;;;;;;;7.77;2.17;;;2.70;99.90;;;;;;5175844;27;20045;-72
2022/04/01 07:08:05;;;;;;;8.05;2.20;;;2.80;99.90;;;;;;5175432;27;20052;-72
2022/04/01 07:10:31;;;;;;;10.70;2.45;;;2.80;99.90;;;;;;5175664;27;20050;-72
2022/04/01 07:12:58;;;;;;;5.80;2.20;;;2.80;99.90;;;;;;5175576;27;20030;-72
2022/04/01 07:15:24;;;;;;;9.38;2.45;;;2.90;99.90;;;;;;5175242;27;20472;-72
2022/04/01 07:17:51;;;;;;;7.70;2.40;;;2.80;99.90;;;;;;5175480;27;20054;-72
2022/04/01 07:20:17;;;;;;;7.55;3.00;;;2.80;99.90;;;;;;5174912;27;20520;-72
2022/04/01 07:22:43;;;;;;;8.35;1.80;;;2.90;99.90;;;;;;5175506;27;20046;-72
2022/04/01 07:25:10;;;;;;;7.25;1.83;;;3.00;99.90;;;;;;5156610;27;20166;-73
2022/04/01 07:27:36;;;;;;;6.63;2.08;;;2.90;99.90;;;;;;5175464;27;20039;-76
2022/04/01 07:30:03;;;;;;;6.82;2.28;;;3.00;99.90;;;;;;5175645;27;20149;-73
2022/04/01 07:32:34;;;;;;;5.68;2.22;;;3.00;99.90;;;;;;5158774;27;20042;-72
2022/04/01 07:35:03;;;;;;;7.53;1.85;;;3.00;99.90;;;;;;5161442;27;20501;-72
2022/04/01 07:37:29;;;;;;;6.40;1.80;;;3.00;99.90;;;;;;5179754;27;20038;-72
2022/04/01 07:39:57;;;;;;;5.60;1.87;;;3.10;99.90;;;;;;5179622;27;20366;-72
2022/04/01 07:42:24;;;;;;;6.57;2.13;;;3.20;99.90;;;;;;5179252;27;20280;-72
2022/04/01 07:44:51;;;;;;;6.00;1.88;;;3.10;99.90;;;;;;5161055;27;20354;-72
2022/04/01 07:47:18;;;;;;;9.40;2.42;;;3.30;99.90;;;;;;5179202;27;20477;-71
2022/04/01 07:49:46;;;;;;;7.00;1.95;;;3.40;99.90;;;;;;5161160;27;20046;-71
2022/04/01 07:52:13;;;;;;;5.07;1.73;;;3.40;99.90;;;;;;5179144;27;20046;-71
2022/04/01 07:54:40;;;;;;;6.78;1.60;;;3.40;99.90;;;;;;5179516;27;20046;-71
2022/04/01 07:57:07;;;;;;;5.32;2.00;;;3.50;99.90;;;;;;5179175;27;20042;-78
2022/04/01 07:59:35;;;;;;;8.55;2.08;;;3.50;99.90;;;;;;5160648;27;20046;-72
2022/04/01 08:02:01;;;;;;;9.07;2.05;;;3.60;99.90;;;;;;5179237;27;20042;-72
2022/04/01 08:04:27;;;;;;;6.13;2.20;;;3.70;99.90;;;;;;5178879;27;20042;-71
2022/04/01 08:06:54;;;;;;;7.57;2.23;;;3.60;99.90;;;;;;5179283;27;20374;-73
2022/04/01 08:09:20;;;;;;;8.75;2.20;;;3.70;99.90;;;;;;5176052;27;20121;-74
2022/04/01 08:11:45;;;;;;;4.33;1.67;;;3.60;99.90;;;;;;5169073;27;20476;-74
2022/04/01 08:14:12;;;;;;;5.30;1.93;;;3.70;99.90;;;;;;5148534;27;20118;-74
2022/04/01 08:16:38;;;;;;;3.42;1.30;;;3.60;99.90;;;;;;5167429;27;20109;-75
2022/04/01 08:19:04;;;;;;;5.97;1.95;;;3.60;99.90;;;;;;5169081;27;20062;-75
2022/04/01 08:21:32;;;;;;;4.88;1.58;;;3.70;99.90;;;;;;5166733;27;20043;-73
2022/04/01 08:23:58;;;;;;;4.60;1.67;;;3.70;99.90;;;;;;5136024;27;20528;-75
2022/04/01 08:26:25;;;;;;;5.30;1.60;;;3.60;99.90;;;;;;5162978;27;20034;-74
2022/04/01 08:28:52;;;;;;;4.25;1.63;;;3.60;99.90;;;;;;5139581;27;20057;-73
2022/04/01 08:31:18;;;;;;;7.55;2.03;;;3.70;99.90;;;;;;5157463;27;20053;-77
2022/04/01 08:33:45;;;;;;;4.20;1.37;;;3.70;99.90;;;;;;5157425;27;20125;-74
2022/04/01 08:36:11;;;;;;;4.45;1.42;;;3.70;99.90;;;;;;5138676;27;20050;-75
2022/04/01 08:38:37;;;;;;;5.73;1.73;;;3.70;99.90;;;;;;5139235;27;20052;-71
2022/04/01 08:41:03;;;;;;;6.00;1.80;;;3.70;99.90;;;;;;5157549;27;20087;-72
2022/04/01 08:43:33;;;;;;;5.22;1.70;;;3.60;99.90;;;;;;5156550;27;20070;-73
2022/04/01 08:46:03;;;;;;;3.08;1.33;;;3.80;99.90;;;;;;5157423;27;20478;-72
2022/04/01 08:48:29;;;;;;;4.25;1.55;;;3.70;99.90;;;;;;5139016;27;20058;-74
2022/04/01 08:50:56;;;;;;;8.13;2.13;;;3.70;99.90;;;;;;5138954;27;20035;-73
2022/04/01 08:53:22;;;;;;;5.15;1.90;;;3.70;99.90;;;;;;5157100;27;20417;-72
2022/04/01 08:55:52;;;;;;;6.13;2.08;;;3.70;99.90;;;;;;5157121;27;20042;-72
2022/04/01 08:58:19;;;;;;;4.72;1.60;;;3.70;99.90;;;;;;5157403;27;20393;-72
2022/04/01 09:00:47;;;;;;;4.38;1.65;;;3.70;99.90;;;;;;5157146;27;20410;-72
2022/04/01 09:03:14;;;;;;;3.45;1.50;;;3.70;99.90;;;;;;5138240;27;20587;-80
2022/04/01 09:05:54;;;;;;;2.85;1.23;;;3.70;99.90;;;;;;5157087;27;20038;-73
2022/04/01 09:08:27;;;;;;;4.75;1.73;;;3.80;99.90;;;;;;5156533;27;20050;-74
2022/04/01 09:10:57;;;;;;;4.15;1.70;;;3.70;99.90;;;;;;5157059;27;20035;-74
2022/04/01 09:13:33;;;;;;;4.68;1.60;;;3.60;99.90;;;;;;5156848;27;20043;-74
2022/04/01 09:16:00;;;;;;;3.15;1.50;;;3.60;99.90;;;;;;5157036;27;20092;-73
2022/04/01 09:18:33;;;;;;;2.92;1.58;;;3.60;99.90;;;;;;5156506;27;20046;-78
2022/04/01 09:20:59;;;;;;;6.03;2.22;;;3.60;99.90;;;;;;5156691;27;20129;-79
2022/04/01 09:23:25;;;;;;;4.07;1.60;;;3.70;99.90;;;;;;5156053;27;20138;-74
2022/04/01 09:25:52;;;;;;;3.10;1.43;;;3.70;99.90;;;;;;5156649;27;20056;-76
2022/04/01 09:28:39;;;;;;;4.90;1.80;;;3.80;99.90;;;;;;5137947;27;20055;-72
2022/04/01 09:31:09;;;;;;;3.72;1.70;;;3.80;99.90;;;;;;5156102;27;20047;-74
2022/04/01 09:33:45;;;;;;;3.83;1.50;;;3.90;99.90;;;;;;5137508;27;20046;-71
2022/04/01 09:36:25;;;;;;;4.72;2.00;;;4.00;99.90;;;;;;5156142;27;20085;-71
2022/04/01 09:39:08;;;;;;;3.67;1.58;;;4.00;99.90;;;;;;5137640;27;20055;-71
2022/04/01 09:41:49;;;;;;;4.43;1.63;;;4.10;99.90;;;;;;5156049;27;20042;-71
2022/04/01 09:44:20;;;;;;;5.70;2.00;;;4.10;99.90;;;;;;5156249;27;20505;-71
2022/04/01 09:46:49;;;;;;;3.67;1.48;;;4.30;99.90;;;;;;5156175;27;20061;-71
2022/04/01 09:49:30;;;;;;;5.50;1.70;;;4.30;99.90;;;;;;5156085;27;20049;-71
2022/04/01 09:51:57;;;;;;;4.78;2.10;;;4.40;99.90;;;;;;5156072;27;20043;-71
2022/04/01 09:54:24;;;;;;;7.25;2.22;;;4.30;99.90;;;;;;5155783;27;20405;-71
2022/04/01 09:56:54;;;;;;;4.25;2.03;;;4.20;99.90;;;;;;5154745;27;20035;-71
2022/04/01 09:59:22;;;;;;;7.07;2.03;;;4.30;99.90;;;;;;5155637;27;20065;-72
2022/04/01 10:01:48;;;;;;;3.78;1.90;;;4.20;99.90;;;;;;5156047;27;20050;-71
2022/04/01 10:04:14;;;;;;;5.00;1.58;;;4.20;99.90;;;;;;5155735;27;20050;-71
2022/04/01 10:06:41;;;;;;;4.15;1.90;;;4.30;99.90;;;;;;5155451;27;20042;-71
2022/04/01 10:09:11;;;;;;;4.68;1.70;;;4.30;99.90;;;;;;5155113;27;20142;-71
2022/04/01 10:11:40;;;;;;;5.55;1.75;;;4.40;99.90;;;;;;5155416;27;20133;-71
2022/04/01 10:14:19;;;;;;;4.00;1.75;;;4.40;99.90;;;;;;5137404;27;20038;-70
2022/04/01 10:16:46;;;;;;;4.25;1.67;;;4.40;99.90;;;;;;5137158;27;20043;-71
2022/04/01 10:19:24;;;;;;;5.82;1.67;;;4.40;99.90;;;;;;5155522;27;20406;-71
2022/04/01 10:21:51;;;;;;;4.95;2.45;;;4.40;99.90;;;;;;5155611;27;20086;-72
2022/04/01 10:24:25;;;;;;;6.68;1.73;;;4.40;99.90;;;;;;5155367;27;20051;-77
2022/04/01 10:27:45;;;;;;;5.28;1.58;;;4.40;99.90;;;;;;5155552;27;20500;-78
2022/04/01 10:30:15;;;;;;;4.97;1.50;;;4.50;99.90;;;;;;5052053;28;20086;-79
2022/04/01 10:32:43;;;;;;;5.28;1.95;;;4.60;99.90;;;;;;5150204;27;20120;-78
2022/04/01 10:35:21;;;;;;;3.88;1.80;;;;;;;;;;5136944;27;20043;-75
2022/04/01 10:37:52;;;;;;;7.78;2.35;;;;;;;;;;5136282;27;20050;-75
2022/04/01 10:40:18;;;;;;;5.60;2.15;;;;;;;;;;5155240;27;20103;-75
2022/04/01 10:42:45;;;;;;;4.53;1.83;;;;;;;;;;5136624;27;20060;-72
2022/04/01 10:45:17;;;;;;;5.38;2.20;;;;;;;;;;5155413;27;20375;-71
2022/04/01 10:53:45;;;;;;;4.28;1.30;;;;;;;;;;5136405;27;20054;-81
2022/04/01 10:56:25;;;;;;;3.83;1.60;;;5.10;96.40;;;;;;5155037;27;20089;-70
2022/04/01 10:59:10;;;;;;;4.82;1.10;;;5.10;99.90;;;;;;5136570;27;20103;-71
2022/04/01 11:01:38;;;;;;;4.18;1.40;;;5.10;91.60;;;;;;5154488;27;20042;-71
2022/04/01 11:04:10;;;;;;;3.13;1.40;;;5.10;97.10;;;;;;5154703;27;20355;-72
2022/04/01 11:06:53;;;;;;;4.97;1.40;;;5.20;93.40;;;;;;5153754;27;20504;-71
2022/04/01 11:09:46;;;;;;;2.58;1.10;;;5.20;87.80;;;;;;5154756;27;20111;-78
2022/04/01 11:12:14;;;;;;;5.50;1.58;;;5.30;86.70;;;;;;5136690;27;20426;-76
2022/04/01 11:14:59;;;;;;;2.85;1.20;;;5.30;84.70;;;;;;5154043;27;20483;-72
2022/04/01 11:17:28;;;;;;;2.95;1.38;;;5.30;80.40;;;;;;5154007;27;20046;-73
2022/04/01 11:20:19;;;;;;;5.25;1.90;;;5.30;81.30;;;;;;5154637;27;20089;-75
2022/04/01 11:22:52;;;;;;;4.88;1.10;;;5.30;74.90;;;;;;5154217;27;20046;-71
2022/04/01 11:25:24;;;;;;;6.75;1.33;;;;;;;;;;5136549;27;20039;-72
2022/04/01 11:28:03;;;;;;;3.90;1.10;;;5.30;85.70;;;;;;5154122;27;20051;-72
2022/04/01 11:30:41;;;;;;;2.90;1.20;;;5.30;84.60;;;;;;5135944;27;20069;-71
2022/04/01 11:33:15;;;;;;;5.85;1.17;;;5.30;75.40;;;;;;5154612;27;20069;-71
2022/04/01 11:35:44;;;;;;;4.80;1.75;;;5.40;79.30;;;;;;5154059;27;20125;-71
2022/04/01 11:38:21;;;;;;;6.53;2.20;;;5.40;77.50;;;;;;5154170;27;20494;-71
2022/04/01 11:40:50;;;;;;;5.00;1.75;;;5.40;78.70;;;;;;5118288;27;20050;-72
2022/04/01 11:43:18;;;;;;;3.85;1.17;;;5.40;78.30;;;;;;5136072;27;20047;-73
2022/04/01 11:45:47;;;;;;;4.93;1.20;;;5.50;77.00;;;;;;5135624;27;20043;-73
2022/04/01 11:48:18;;;;;;;3.42;1.30;;;5.50;80.20;;;;;;5136102;27;20050;-74
2022/04/01 11:50:55;;;;;;;6.03;1.60;;;5.50;78.60;;;;;;5135689;27;20062;-73
2022/04/01 11:53:24;;;;;;;8.95;1.20;;;5.50;76.00;;;;;;5136138;27;20054;-83
2022/04/01 11:55:51;;;;;;;5.30;1.40;;;5.60;77.70;;;;;;5153890;27;20121;-70
2022/04/01 11:58:17;;;;;;;6.30;1.77;;;5.50;70.30;;;;;;5135885;27;20505;-70
2022/04/01 12:00:43;;;;;;;7.27;1.10;;;5.60;71.30;;;;;;5153977;27;20043;-80
2022/04/01 12:03:09;;;;;;;6.53;1.70;;;;;;;;;;5135721;27;20043;-70
2022/04/01 12:05:36;;;;;;;4.43;1.10;;;;;;;;;;5153755;27;20046;-73
2022/04/01 12:10:57;;;;;;;4.97;1.35;;;;;;;;;;5152818;27;20055;-72
2022/04/01 12:13:30;;;;;;;4.97;1.40;;;;;;;;;;5154039;27;20053;-71
2022/04/01 12:15:58;;;;;;;4.70;1.60;;;;;;;;;;5153765;27;20553;-72
2022/04/01 12:18:27;;;;;;;3.72;1.42;;;;;;;;;;5135485;27;20107;-72
2022/04/01 12:20:54;;;;;;;3.00;1.27;;;;;;;;;;5157617;27;20047;-72
2022/04/01 12:23:26;;;;;;;3.13;1.30;;;;;;;;;;5139665;27;20054;-71
2022/04/01 12:25:53;;;;;;;5.03;1.45;;;;;;;;;;5139162;27;20058;-72
2022/04/01 12:28:20;;;;;;;5.68;1.58;;;;;;;;;;5139050;27;20089;-72
2022/04/01 12:30:48;;;;;;;6.25;1.40;;;6.00;99.80;;;;;;5157080;27;20486;-75
2022/04/01 12:33:21;;;;;;;5.57;1.40;;;6.00;90.30;;;;;;5139415;27;20500;-71
2022/04/01 12:36:01;;;;;;;7.88;1.75;;;6.20;77.40;;;;;;5157947;27;20107;-72
2022/04/01 12:38:28;;;;;;;3.90;1.48;;;6.00;81.10;;;;;;5157731;27;20053;-70
2022/04/01 12:40:57;;;;;;;3.22;1.23;;;6.00;78.00;;;;;;5157159;27;20059;-78
2022/04/01 12:43:30;;;;;;;4.63;1.50;;;5.90;79.20;;;;;;5157483;27;20049;-72
2022/04/01 12:46:06;;;;;;;5.38;1.30;;;;;;;;;;5138535;27;20035;-76
2022/04/01 12:48:40;;;;;;;5.22;1.88;;;;;;;;;;5157504;27;20058;-77
2022/04/01 12:51:05;;;;;;;6.85;1.55;;;5.50;75.90;;;;;;5157109;27;20046;-76
2022/04/01 12:53:31;;;;;;;4.10;1.50;;;5.60;76.10;;;;;;5138919;27;20367;-73
2022/04/01 12:56:21;;;;;;;5.10;1.50;;;5.50;80.30;;;;;;5156855;27;20091;-72
2022/04/01 12:58:54;;;;;;;4.60;1.35;;;5.50;78.90;;;;;;5157067;27;20050;-79
2022/04/01 13:01:28;;;;;;;4.68;1.20;;;5.50;77.10;;;;;;5159256;27;20062;-69
2022/04/01 13:03:56;;;;;;;4.97;1.70;;;5.60;75.90;;;;;;5146907;27;20089;-74
2022/04/01 13:06:26;;;;;;;4.18;1.38;;;5.60;71.70;;;;;;5148615;27;20046;-78
2022/04/01 13:08:59;;;;;;;3.40;1.20;;;5.60;72.20;;;;;;5166343;27;20050;-77
2022/04/01 13:11:35;;;;;;;4.03;1.33;;;5.60;74.70;;;;;;5146972;27;20035;-75
2022/04/01 13:14:01;;;;;;;4.43;1.38;;;5.70;75.50;;;;;;5146656;27;20043;-77
2022/04/01 13:16:36;;;;;;;8.93;1.50;;;5.70;72.30;;;;;;5166015;27;20034;-74
2022/04/01 13:19:26;;;;;;;5.97;1.70;;;5.70;73.00;;;;;;5164656;27;20064;-74
2022/04/01 13:22:04;;;;;;;5.15;1.90;;;5.80;73.60;;;;;;5165990;27;20066;-79
2022/04/01 13:24:37;;;;;;;5.03;1.50;;;5.80;75.50;;;;;;5166200;27;20034;-79
2022/04/01 13:27:09;;;;;;;4.45;1.65;;;5.80;77.10;;;;;;5146718;27;20474;-78
2022/04/01 13:29:36;;;;;;;8.52;2.47;;;5.80;75.90;;;;;;5164157;27;20203;-78
2022/04/01 13:32:03;;;;;;;7.10;2.05;;;5.80;75.60;;;;;;5147778;27;20042;-76
2022/04/01 13:34:29;;;;;;;6.82;2.20;;;5.80;75.00;;;;;;5167305;27;20125;-79
2022/04/01 13:36:55;;;;;;;9.30;2.15;;;5.80;75.30;;;;;;5160340;27;20039;-73
2022/04/01 13:39:23;;;;;;;4.85;2.00;;;5.70;73.70;;;;;;5149903;27;20042;-74
2022/04/01 13:41:50;;;;;;;6.38;2.00;;;5.90;74.80;;;;;;5163974;27;20418;-72
2022/04/01 13:44:16;;;;;;;4.85;1.60;;;5.90;76.40;;;;;;5167022;27;20042;-73